createdAt,value
2023-06-17T00:00:23.023Z,0.00
2023-06-17T00:01:22.860Z,0.00
2023-06-17T00:02:23.054Z,0.00
2023-06-17T00:03:22.815Z,0.00
2023-06-17T00:04:22.731Z,0.00
2023-06-17T00:05:22.665Z,0.00
2023-06-17T00:06:23.927Z,0.00
2023-06-17T00:07:22.974Z,0.00
2023-06-17T00:08:22.656Z,0.00
2023-06-17T00:09:22.998Z,0.00
2023-06-17T00:10:22.745Z,0.00
2023-06-17T00:11:22.615Z,0.00
2023-06-17T00:12:22.619Z,0.00
2023-06-17T00:13:22.618Z,0.00
2023-06-17T00:14:23.572Z,0.00
2023-06-17T00:15:22.588Z,0.00
2023-06-17T00:16:22.533Z,0.00
2023-06-17T00:17:22.619Z,0.00
2023-06-17T00:18:22.549Z,0.00
2023-06-17T00:19:22.510Z,0.00
2023-06-17T00:20:22.773Z,0.00
2023-06-17T00:21:22.495Z,0.00
2023-06-17T00:22:22.528Z,0.00
2023-06-17T00:23:22.554Z,0.00
2023-06-17T00:24:22.522Z,0.00
2023-06-17T00:25:22.495Z,0.00
2023-06-17T00:26:22.417Z,0.00
2023-06-17T00:27:22.430Z,0.00
2023-06-17T00:28:22.389Z,0.00
2023-06-17T00:29:22.406Z,0.00
2023-06-17T00:30:22.707Z,0.00
2023-06-17T00:31:22.361Z,0.00
2023-06-17T00:32:22.409Z,0.00
2023-06-17T00:33:22.355Z,0.00
2023-06-17T00:34:22.328Z,0.00
2023-06-17T00:35:22.302Z,0.00
2023-06-17T00:36:22.323Z,0.00
2023-06-17T00:37:22.295Z,0.00
2023-06-17T00:38:22.308Z,0.00
2023-06-17T00:39:22.262Z,0.00
2023-06-17T00:40:22.547Z,0.00
2023-06-17T00:41:22.315Z,0.00
2023-06-17T00:42:22.235Z,0.00
2023-06-17T00:43:22.253Z,0.00
2023-06-17T00:44:22.275Z,0.00
2023-06-17T00:45:22.195Z,0.00
2023-06-17T00:46:22.211Z,0.00
2023-06-17T00:47:22.222Z,0.00
2023-06-17T00:48:22.232Z,0.00
2023-06-17T00:49:22.166Z,0.00
2023-06-17T00:50:22.371Z,0.00
2023-06-17T00:51:22.153Z,0.00
2023-06-17T00:52:40.316Z,0.00
2023-06-17T00:53:23.103Z,0.00
2023-06-17T00:54:22.130Z,0.00
2023-06-17T00:55:23.642Z,0.00
2023-06-17T00:56:22.126Z,0.00
2023-06-17T00:57:22.073Z,0.00
2023-06-17T00:58:22.057Z,0.00
2023-06-17T00:59:22.043Z,0.00
2023-06-17T01:00:22.315Z,0.00
2023-06-17T01:01:22.060Z,0.00
2023-06-17T01:02:22.016Z,0.00
2023-06-17T01:03:22.146Z,0.00
2023-06-17T01:04:22.009Z,0.00
2023-06-17T01:05:21.997Z,0.00
2023-06-17T01:06:21.956Z,0.00
2023-06-17T01:07:21.976Z,0.00
2023-06-17T01:08:21.964Z,0.00
2023-06-17T01:09:21.931Z,0.00
2023-06-17T01:10:22.220Z,0.00
2023-06-17T01:11:21.916Z,0.00
2023-06-17T01:12:21.890Z,0.00
2023-06-17T01:13:21.860Z,0.00
2023-06-17T01:14:21.892Z,0.00
2023-06-17T01:15:21.867Z,0.00
2023-06-17T01:16:21.910Z,0.00
2023-06-17T01:17:21.865Z,0.00
2023-06-17T01:18:21.852Z,0.00
2023-06-17T01:19:21.800Z,0.00
2023-06-17T01:20:22.101Z,0.00
2023-06-17T01:21:21.797Z,0.00
2023-06-17T01:22:21.806Z,0.00
2023-06-17T01:23:21.777Z,0.00
2023-06-17T01:24:21.808Z,0.00
2023-06-17T01:25:21.838Z,0.00
2023-06-17T01:26:21.748Z,0.00
2023-06-17T01:27:21.833Z,0.00
2023-06-17T01:28:21.890Z,0.00
2023-06-17T01:29:21.698Z,0.00
2023-06-17T01:30:21.899Z,0.00
2023-06-17T01:31:21.750Z,0.00
2023-06-17T01:32:21.698Z,0.00
2023-06-17T01:33:21.676Z,0.00
2023-06-17T01:34:21.621Z,0.00
2023-06-17T01:35:21.647Z,0.00
2023-06-17T01:36:21.648Z,0.00
2023-06-17T01:37:21.592Z,0.00
2023-06-17T01:38:21.583Z,0.00
2023-06-17T01:39:21.561Z,0.00
2023-06-17T01:40:22.015Z,0.00
2023-06-17T01:41:21.589Z,0.00
2023-06-17T01:42:21.549Z,0.00
2023-06-17T01:43:21.545Z,0.00
2023-06-17T01:44:21.557Z,0.00
2023-06-17T01:45:21.535Z,0.00
2023-06-17T01:46:21.520Z,0.00
2023-06-17T01:47:21.505Z,0.00
2023-06-17T01:48:21.469Z,0.00
2023-06-17T01:49:21.512Z,0.00
2023-06-17T01:50:21.684Z,0.00
2023-06-17T01:51:21.459Z,0.00
2023-06-17T01:52:21.409Z,0.00
2023-06-17T01:53:21.408Z,0.00
2023-06-17T01:54:21.428Z,0.00
2023-06-17T01:55:21.405Z,0.00
2023-06-17T01:56:21.450Z,0.00
2023-06-17T01:57:21.347Z,0.00
2023-06-17T01:58:21.343Z,0.00
2023-06-17T01:59:21.327Z,0.00
2023-06-17T02:00:21.636Z,0.00
2023-06-17T02:01:21.305Z,0.00
2023-06-17T02:02:21.342Z,0.00
2023-06-17T02:03:21.451Z,0.00
2023-06-17T02:04:21.316Z,0.00
2023-06-17T02:05:21.365Z,0.00
2023-06-17T02:06:21.284Z,0.00
2023-06-17T02:07:21.260Z,0.00
2023-06-17T02:08:21.270Z,0.00
2023-06-17T02:09:21.251Z,0.00
2023-06-17T02:10:21.523Z,0.00
2023-06-17T02:11:21.205Z,0.00
2023-06-17T02:12:21.188Z,0.00
2023-06-17T02:13:21.246Z,0.00
2023-06-17T02:14:21.161Z,0.00
2023-06-17T02:15:21.168Z,0.00
2023-06-17T02:16:21.259Z,4.00
2023-06-17T02:17:21.125Z,4.00
2023-06-17T02:18:21.134Z,0.00
2023-06-17T02:19:21.131Z,0.00
2023-06-17T02:20:21.423Z,0.00
2023-06-17T02:21:21.118Z,4.00
2023-06-17T02:22:21.107Z,4.00
2023-06-17T02:23:21.144Z,0.00
2023-06-17T02:24:21.099Z,4.00
2023-06-17T02:25:21.090Z,8.00
2023-06-17T02:26:21.113Z,8.00
2023-06-17T02:27:21.027Z,8.00
2023-06-17T02:28:21.000Z,8.00
2023-06-17T02:29:21.063Z,8.00
2023-06-17T02:30:21.274Z,8.00
2023-06-17T02:31:21.015Z,8.00
2023-06-17T02:32:20.965Z,12.00
2023-06-17T02:33:20.952Z,12.00
2023-06-17T02:34:20.928Z,12.00
2023-06-17T02:35:21.000Z,12.00
2023-06-17T02:36:20.911Z,12.00
2023-06-17T02:37:20.893Z,16.00
2023-06-17T02:38:20.893Z,20.00
2023-06-17T02:39:20.916Z,24.00
2023-06-17T02:40:21.131Z,24.00
2023-06-17T02:41:20.873Z,28.00
2023-06-17T02:42:20.855Z,36.00
2023-06-17T02:43:20.852Z,40.00
2023-06-17T02:44:20.808Z,44.00
2023-06-17T02:45:20.847Z,48.00
2023-06-17T02:46:20.876Z,52.00
2023-06-17T02:47:20.804Z,56.00
2023-06-17T02:48:20.794Z,60.00
2023-06-17T02:49:20.763Z,68.00
2023-06-17T02:50:21.078Z,72.00
2023-06-17T02:51:20.747Z,80.00
2023-06-17T02:52:20.768Z,92.00
2023-06-17T02:53:20.757Z,104.00
2023-06-17T02:54:20.697Z,116.00
2023-06-17T02:55:20.730Z,132.00
2023-06-17T02:56:20.689Z,144.00
2023-06-17T02:57:20.677Z,156.00
2023-06-17T02:58:20.683Z,168.00
2023-06-17T02:59:20.635Z,176.00
2023-06-17T03:00:20.854Z,184.00
2023-06-17T03:01:20.692Z,196.00
2023-06-17T03:02:20.680Z,212.00
2023-06-17T03:03:20.665Z,228.00
2023-06-17T03:04:20.601Z,244.00
2023-06-17T03:05:20.612Z,256.00
2023-06-17T03:06:20.569Z,272.00
2023-06-17T03:07:20.594Z,288.00
2023-06-17T03:08:20.568Z,304.00
2023-06-17T03:09:20.537Z,320.00
2023-06-17T03:10:20.846Z,344.00
2023-06-17T03:11:20.521Z,368.00
2023-06-17T03:12:20.565Z,404.00
2023-06-17T03:13:20.474Z,448.00
2023-06-17T03:14:20.661Z,496.00
2023-06-17T03:15:20.536Z,552.00
2023-06-17T03:16:20.447Z,600.00
2023-06-17T03:17:20.459Z,656.00
2023-06-17T03:18:20.831Z,708.00
2023-06-17T03:19:20.430Z,756.00
2023-06-17T03:20:20.836Z,796.00
2023-06-17T03:21:20.377Z,836.00
2023-06-17T03:22:20.428Z,884.00
2023-06-17T03:23:20.381Z,928.00
2023-06-17T03:24:20.412Z,972.00
2023-06-17T03:25:20.386Z,1024.00
2023-06-17T03:26:20.333Z,1088.00
2023-06-17T03:27:20.343Z,1164.00
2023-06-17T03:28:20.343Z,1232.00
2023-06-17T03:29:20.308Z,1308.00
2023-06-17T03:30:20.521Z,1360.00
2023-06-17T03:31:20.362Z,1420.00
2023-06-17T03:32:20.267Z,1460.00
2023-06-17T03:33:20.253Z,1512.00
2023-06-17T03:34:20.268Z,1540.00
2023-06-17T03:35:20.216Z,1580.00
2023-06-17T03:36:20.270Z,1672.00
2023-06-17T03:37:20.211Z,1744.00
2023-06-17T03:38:20.195Z,1804.00
2023-06-17T03:39:20.226Z,1900.00
2023-06-17T03:40:20.390Z,1984.00
2023-06-17T03:41:20.160Z,2024.00
2023-06-17T03:42:20.199Z,2060.00
2023-06-17T03:43:20.155Z,2088.00
2023-06-17T03:44:20.149Z,2144.00
2023-06-17T03:45:20.124Z,2216.00
2023-06-17T03:46:20.114Z,2208.00
2023-06-17T03:47:20.119Z,2208.00
2023-06-17T03:48:20.099Z,2236.00
2023-06-17T03:49:20.152Z,2312.00
2023-06-17T03:50:20.439Z,2424.00
2023-06-17T03:51:20.062Z,2568.00
2023-06-17T03:52:20.067Z,2712.00
2023-06-17T03:53:20.041Z,2812.00
2023-06-17T03:54:20.055Z,2880.00
2023-06-17T03:55:20.056Z,2928.00
2023-06-17T03:56:20.044Z,2968.00
2023-06-17T03:57:19.997Z,2996.00
2023-06-17T03:58:19.979Z,3024.00
2023-06-17T03:59:21.033Z,3032.00
2023-06-17T04:00:20.247Z,3036.00
2023-06-17T04:01:20.018Z,3024.00
2023-06-17T04:02:20.017Z,3020.00
2023-06-17T04:03:20.029Z,2976.00
2023-06-17T04:04:19.919Z,2940.00
2023-06-17T04:05:19.902Z,2892.00
2023-06-17T04:06:19.880Z,2852.00
2023-06-17T04:07:19.852Z,2832.00
2023-06-17T04:08:19.866Z,2884.00
2023-06-17T04:09:19.843Z,3052.00
2023-06-17T04:10:19.869Z,3232.00
2023-06-17T04:11:19.805Z,3460.00
2023-06-17T04:12:19.806Z,3636.00
2023-06-17T04:13:19.862Z,3724.00
2023-06-17T04:14:19.805Z,3788.00
2023-06-17T04:15:19.758Z,3852.00
2023-06-17T04:16:19.767Z,3904.00
2023-06-17T04:17:19.751Z,3952.00
2023-06-17T04:18:19.842Z,4036.00
2023-06-17T04:19:19.763Z,4112.00
2023-06-17T04:20:19.883Z,4164.00
2023-06-17T04:21:19.725Z,4172.00
2023-06-17T04:22:19.724Z,4184.00
2023-06-17T04:23:19.922Z,4196.00
2023-06-17T04:25:29.857Z,4392.00
2023-06-17T04:26:29.812Z,4556.00
2023-06-17T04:27:29.861Z,4640.00
2023-06-17T04:28:29.803Z,4752.00
2023-06-17T04:29:29.788Z,4840.00
2023-06-17T04:30:29.792Z,4884.00
2023-06-17T04:31:29.798Z,4924.00
2023-06-17T04:32:29.777Z,4956.00
2023-06-17T04:33:29.780Z,5012.00
2023-06-17T04:34:29.750Z,5064.00
2023-06-17T04:35:29.764Z,5132.00
2023-06-17T04:36:29.696Z,5164.00
2023-06-17T04:37:29.682Z,5236.00
2023-06-17T04:38:29.732Z,5364.00
2023-06-17T04:39:29.692Z,5492.00
2023-06-17T04:40:29.651Z,5300.00
2023-06-17T04:41:29.695Z,5192.00
2023-06-17T04:42:29.636Z,4804.00
2023-06-17T04:43:29.642Z,4632.00
2023-06-17T04:44:29.605Z,4408.00
2023-06-17T04:45:29.671Z,4084.00
2023-06-17T04:46:29.656Z,3900.00
2023-06-17T04:47:29.649Z,3916.00
2023-06-17T04:48:29.567Z,4068.00
2023-06-17T04:49:29.565Z,4332.00
2023-06-17T04:50:29.576Z,4648.00
2023-06-17T04:51:29.676Z,4816.00
2023-06-17T04:52:29.541Z,4816.00
2023-06-17T04:53:29.522Z,4716.00
2023-06-17T04:54:29.541Z,4560.00
2023-06-17T04:55:29.490Z,4440.00
2023-06-17T04:56:29.477Z,4324.00
2023-06-17T04:57:29.494Z,4232.00
2023-06-17T04:58:29.493Z,4356.00
2023-06-17T04:59:29.439Z,4544.00
2023-06-17T05:00:29.441Z,4876.00
2023-06-17T05:01:29.530Z,5168.00
2023-06-17T05:02:29.482Z,5252.00
2023-06-17T05:03:29.405Z,5404.00
2023-06-17T05:04:29.391Z,5508.00
2023-06-17T05:05:29.386Z,5544.00
2023-06-17T05:06:29.369Z,5584.00
2023-06-17T05:07:29.381Z,5648.00
2023-06-17T05:08:29.342Z,5700.00
2023-06-17T05:09:29.373Z,5720.00
2023-06-17T05:10:29.330Z,5720.00
2023-06-17T05:11:29.351Z,5896.00
2023-06-17T05:12:29.306Z,5832.00
2023-06-17T05:13:29.275Z,6428.00
2023-06-17T05:14:29.275Z,6468.00
2023-06-17T05:15:29.286Z,6656.00
2023-06-17T05:16:29.276Z,7004.00
2023-06-17T05:17:29.290Z,7876.00
2023-06-17T05:18:29.218Z,8544.00
2023-06-17T05:19:29.208Z,8076.00
2023-06-17T05:20:29.228Z,8172.00
2023-06-17T05:21:29.185Z,7180.00
2023-06-17T05:22:29.214Z,6872.00
2023-06-17T05:23:29.191Z,6820.00
2023-06-17T05:24:29.247Z,5840.00
2023-06-17T05:25:29.360Z,6256.00
2023-06-17T05:26:29.139Z,6788.00
2023-06-17T05:27:29.135Z,6768.00
2023-06-17T05:28:29.110Z,5640.00
2023-06-17T05:29:29.103Z,5740.00
2023-06-17T05:30:29.155Z,5904.00
2023-06-17T05:31:29.082Z,6760.00
2023-06-17T05:32:29.093Z,8632.00
2023-06-17T05:33:29.076Z,9148.00
2023-06-17T05:34:29.044Z,9440.00
2023-06-17T05:35:29.056Z,10460.00
2023-06-17T05:36:29.042Z,10572.00
2023-06-17T05:37:29.015Z,10704.00
2023-06-17T05:38:29.046Z,11364.00
2023-06-17T05:39:29.018Z,16928.00
2023-06-17T05:40:28.978Z,22304.00
2023-06-17T05:41:28.985Z,22784.00
2023-06-17T05:42:28.955Z,23264.00
2023-06-17T05:43:28.948Z,23904.00
2023-06-17T05:44:28.977Z,24096.00
2023-06-17T05:45:28.909Z,23872.00
2023-06-17T05:46:28.954Z,23808.00
2023-06-17T05:47:28.933Z,24096.00
2023-06-17T05:48:28.888Z,24928.00
2023-06-17T05:49:28.868Z,25056.00
2023-06-17T05:50:28.863Z,25280.00
2023-06-17T05:51:28.905Z,24384.00
2023-06-17T05:52:28.815Z,24864.00
2023-06-17T05:53:28.831Z,25856.00
2023-06-17T05:54:28.820Z,26880.00
2023-06-17T05:55:28.791Z,27808.00
2023-06-17T05:56:28.811Z,29632.00
2023-06-17T05:57:28.798Z,31520.00
2023-06-17T05:58:28.787Z,31488.00
2023-06-17T05:59:28.746Z,31200.00
2023-06-17T06:00:28.739Z,30304.00
2023-06-17T06:01:28.784Z,30368.00
2023-06-17T06:02:28.773Z,13708.00
2023-06-17T06:03:28.722Z,21664.00
2023-06-17T06:04:28.701Z,32896.00
2023-06-17T06:05:28.672Z,36960.00
2023-06-17T06:06:28.704Z,36224.00
2023-06-17T06:07:28.691Z,33728.00
2023-06-17T06:08:28.666Z,33568.00
2023-06-17T06:09:28.632Z,29408.00
2023-06-17T06:10:28.702Z,35776.00
2023-06-17T06:11:28.665Z,35904.00
2023-06-17T06:12:28.642Z,35680.00
2023-06-17T06:13:28.631Z,36992.00
2023-06-17T06:14:28.573Z,37088.00
2023-06-17T06:15:28.582Z,36288.00
2023-06-17T06:16:28.592Z,35776.00
2023-06-17T06:17:28.632Z,35008.00
2023-06-17T06:18:28.529Z,34816.00
2023-06-17T06:19:28.550Z,35104.00
2023-06-17T06:20:28.613Z,34816.00
2023-06-17T06:21:28.512Z,34944.00
2023-06-17T06:22:28.508Z,34912.00
2023-06-17T06:23:28.524Z,34656.00
2023-06-17T06:24:28.523Z,33408.00
2023-06-17T06:25:28.459Z,10492.00
2023-06-17T06:26:28.479Z,10564.00
2023-06-17T06:27:28.457Z,26560.00
2023-06-17T06:28:28.492Z,34112.00
2023-06-17T06:29:28.445Z,37536.00
2023-06-17T06:30:28.417Z,12540.00
2023-06-17T06:31:28.385Z,14060.00
2023-06-17T06:32:28.462Z,13280.00
2023-06-17T06:33:28.399Z,10152.00
2023-06-17T06:34:28.424Z,9716.00
2023-06-17T06:35:28.350Z,10612.00
2023-06-17T06:36:28.328Z,14604.00
2023-06-17T06:37:28.340Z,43616.00
2023-06-17T06:38:28.349Z,44832.00
2023-06-17T06:39:28.335Z,43360.00
2023-06-17T06:40:28.421Z,33248.00
2023-06-17T06:41:28.270Z,38816.00
2023-06-17T06:42:28.286Z,43552.00
2023-06-17T06:43:28.290Z,28544.00
2023-06-17T06:44:28.308Z,13128.00
2023-06-17T06:45:28.294Z,9052.00
2023-06-17T06:46:28.375Z,8808.00
2023-06-17T06:47:28.273Z,8996.00
2023-06-17T06:48:28.235Z,9228.00
2023-06-17T06:49:28.211Z,9728.00
2023-06-17T06:50:28.255Z,12652.00
2023-06-17T06:51:28.178Z,37056.00
2023-06-17T06:52:28.176Z,26784.00
2023-06-17T06:53:28.135Z,48288.00
2023-06-17T06:54:28.164Z,45312.00
2023-06-17T06:55:28.140Z,42208.00
2023-06-17T06:56:28.165Z,51936.00
2023-06-17T06:57:28.093Z,49760.00
2023-06-17T06:58:28.101Z,50048.00
2023-06-17T06:59:28.079Z,51008.00
2023-06-17T07:00:28.073Z,51968.00
2023-06-17T07:01:28.226Z,50304.00
2023-06-17T07:02:28.092Z,49408.00
2023-06-17T07:03:28.068Z,50432.00
2023-06-17T07:04:28.140Z,52000.00
2023-06-17T07:05:28.028Z,52288.00
2023-06-17T07:06:28.012Z,53248.00
2023-06-17T07:07:28.027Z,49216.00
2023-06-17T07:08:27.975Z,53632.00
2023-06-17T07:09:27.991Z,52672.00
2023-06-17T07:10:27.952Z,49184.00
2023-06-17T07:11:27.960Z,53152.00
2023-06-17T07:12:27.942Z,54336.00
2023-06-17T07:13:27.958Z,54432.00
2023-06-17T07:14:27.946Z,54656.00
2023-06-17T07:15:27.900Z,52352.00
2023-06-17T07:16:27.953Z,52992.00
2023-06-17T07:17:27.920Z,51488.00
2023-06-17T07:18:27.891Z,51168.00
2023-06-17T07:19:27.907Z,52640.00
2023-06-17T07:20:27.864Z,53312.00
2023-06-17T07:21:27.868Z,53408.00
2023-06-17T07:22:27.849Z,51520.00
2023-06-17T07:23:27.852Z,15668.00
2023-06-17T07:24:27.861Z,51968.00
2023-06-17T07:25:27.814Z,53568.00
2023-06-17T07:26:27.850Z,56384.00
2023-06-17T07:27:27.793Z,58176.00
2023-06-17T07:28:27.767Z,52960.00
2023-06-17T07:29:27.746Z,36160.00
2023-06-17T07:30:27.796Z,26944.00
2023-06-17T07:31:27.800Z,60672.00
2023-06-17T07:32:27.834Z,20192.00
2023-06-17T07:33:27.707Z,16768.00
2023-06-17T07:34:27.696Z,16512.00
2023-06-17T07:35:27.699Z,46624.00
2023-06-17T07:36:27.742Z,13680.00
2023-06-17T07:37:27.692Z,16736.00
2023-06-17T07:38:27.668Z,14500.00
2023-06-17T07:39:27.637Z,28416.00
2023-06-17T07:40:27.633Z,63136.00
2023-06-17T07:41:27.628Z,61952.00
2023-06-17T07:42:27.649Z,62944.00
2023-06-17T07:43:27.596Z,67360.00
2023-06-17T07:44:27.622Z,66304.00
2023-06-17T07:45:27.574Z,63520.00
2023-06-17T07:46:27.714Z,63040.00
2023-06-17T07:47:27.625Z,63360.00
2023-06-17T07:48:27.556Z,62912.00
2023-06-17T07:49:27.554Z,63296.00
2023-06-17T07:50:27.544Z,62496.00
2023-06-17T07:51:27.526Z,59552.00
2023-06-17T07:52:27.527Z,59200.00
2023-06-17T07:53:27.500Z,64096.00
2023-06-17T07:54:27.557Z,65760.00
2023-06-17T07:55:27.520Z,67168.00
2023-06-17T07:56:27.482Z,62240.00
2023-06-17T07:57:27.470Z,17092.00
2023-06-17T07:58:27.444Z,17920.00
2023-06-17T07:59:27.463Z,21728.00
2023-06-17T08:00:27.461Z,19968.00
2023-06-17T08:01:27.468Z,66784.00
2023-06-17T08:02:27.566Z,19232.00
2023-06-17T08:03:27.481Z,26144.00
2023-06-17T08:04:27.390Z,72032.00
2023-06-17T08:05:27.437Z,74400.00
2023-06-17T08:06:27.404Z,73632.00
2023-06-17T08:07:27.364Z,71584.00
2023-06-17T08:08:27.351Z,60544.00
2023-06-17T08:09:27.366Z,63136.00
2023-06-17T08:10:27.339Z,20384.00
2023-06-17T08:11:27.355Z,16224.00
2023-06-17T08:12:27.308Z,15792.00
2023-06-17T08:13:27.322Z,54464.00
2023-06-17T08:14:27.296Z,70976.00
2023-06-17T08:15:27.279Z,71744.00
2023-06-17T08:16:27.339Z,74624.00
2023-06-17T08:17:27.309Z,74880.00
2023-06-17T08:18:27.278Z,73952.00
2023-06-17T08:19:27.241Z,70080.00
2023-06-17T08:20:27.219Z,71584.00
2023-06-17T08:21:27.232Z,76032.00
2023-06-17T08:22:27.229Z,73088.00
2023-06-17T08:23:27.227Z,71776.00
2023-06-17T08:24:27.228Z,80544.00
2023-06-17T08:25:27.194Z,78784.00
2023-06-17T08:26:27.172Z,82464.00
2023-06-17T08:27:27.664Z,82944.00
2023-06-17T08:28:27.147Z,80000.00
2023-06-17T08:29:27.161Z,82336.00
2023-06-17T08:30:27.155Z,83616.00
2023-06-17T08:31:27.110Z,63840.00
2023-06-17T08:32:27.133Z,79904.00
2023-06-17T08:33:27.082Z,79264.00
2023-06-17T08:34:27.110Z,60640.00
2023-06-17T08:35:27.095Z,80608.00
2023-06-17T08:36:27.118Z,84736.00
2023-06-17T08:37:27.084Z,69312.00
2023-06-17T08:38:27.049Z,84480.00
2023-06-17T08:39:27.039Z,23040.00
2023-06-17T08:40:27.018Z,33152.00
2023-06-17T08:41:27.021Z,84896.00
2023-06-17T08:42:27.012Z,84512.00
2023-06-17T08:43:27.009Z,86080.00
2023-06-17T08:44:26.981Z,62016.00
2023-06-17T08:45:27.036Z,78240.00
2023-06-17T08:46:27.045Z,49920.00
2023-06-17T08:47:27.096Z,50400.00
2023-06-17T08:48:26.956Z,81824.00
2023-06-17T08:49:26.950Z,76928.00
2023-06-17T08:50:26.960Z,82624.00
2023-06-17T08:51:26.953Z,83104.00
2023-06-17T08:52:26.938Z,80512.00
2023-06-17T08:53:26.931Z,28672.00
2023-06-17T08:54:26.882Z,82816.00
2023-06-17T08:55:26.909Z,84960.00
2023-06-17T08:56:26.892Z,86752.00
2023-06-17T08:57:26.886Z,85920.00
2023-06-17T08:58:26.906Z,49600.00
2023-06-17T08:59:26.834Z,64480.00
2023-06-17T09:00:26.851Z,86176.00
2023-06-17T09:01:26.971Z,65312.00
2023-06-17T09:02:26.861Z,88768.00
2023-06-17T09:03:26.837Z,75040.00
2023-06-17T09:04:26.844Z,74784.00
2023-06-17T09:05:26.865Z,72352.00
2023-06-17T09:06:26.774Z,93504.00
2023-06-17T09:07:26.794Z,94208.00
2023-06-17T09:08:26.772Z,80608.00
2023-06-17T09:09:26.744Z,43008.00
2023-06-17T09:10:26.752Z,77056.00
2023-06-17T09:11:26.718Z,94016.00
2023-06-17T09:12:26.747Z,80096.00
2023-06-17T09:13:26.755Z,39584.00
2023-06-17T09:14:26.702Z,61728.00
2023-06-17T09:15:26.709Z,73376.00
2023-06-17T09:16:26.744Z,84416.00
2023-06-17T09:17:26.721Z,71200.00
2023-06-17T09:18:26.673Z,43872.00
2023-06-17T09:19:26.652Z,30304.00
2023-06-17T09:20:26.691Z,34912.00
2023-06-17T09:21:26.672Z,97536.00
2023-06-17T09:22:26.669Z,68512.00
2023-06-17T09:23:26.606Z,48224.00
2023-06-17T09:24:26.630Z,31040.00
2023-06-17T09:25:26.625Z,20128.00
2023-06-17T09:26:26.593Z,18528.00
2023-06-17T09:27:26.593Z,17696.00
2023-06-17T09:28:26.604Z,17472.00
2023-06-17T09:29:26.606Z,16416.00
2023-06-17T09:30:26.551Z,15440.00
2023-06-17T09:31:26.561Z,15428.00
2023-06-17T09:32:26.623Z,16672.00
2023-06-17T09:33:26.525Z,17664.00
2023-06-17T09:34:26.496Z,18912.00
2023-06-17T09:35:26.499Z,19616.00
2023-06-17T09:36:26.473Z,27168.00
2023-06-17T09:37:26.501Z,49536.00
2023-06-17T09:38:26.501Z,19008.00
2023-06-17T09:39:26.444Z,15808.00
2023-06-17T09:40:26.429Z,14372.00
2023-06-17T09:41:26.423Z,12576.00
2023-06-17T09:42:26.425Z,11076.00
2023-06-17T09:43:28.470Z,10016.00
2023-06-17T09:44:26.424Z,9104.00
2023-06-17T09:45:26.389Z,8512.00
2023-06-17T09:46:26.503Z,8592.00
2023-06-17T09:47:26.386Z,9208.00
2023-06-17T09:48:26.354Z,10900.00
2023-06-17T09:49:26.362Z,12184.00
2023-06-17T09:50:26.413Z,11440.00
2023-06-17T09:51:26.358Z,9860.00
2023-06-17T09:52:26.298Z,8664.00
2023-06-17T09:53:26.366Z,8268.00
2023-06-17T09:54:26.304Z,8640.00
2023-06-17T09:55:26.312Z,9620.00
2023-06-17T09:56:26.268Z,10324.00
2023-06-17T09:57:26.245Z,11388.00
2023-06-17T09:58:26.256Z,13772.00
2023-06-17T09:59:26.278Z,10688.00
2023-06-17T10:00:26.375Z,8944.00
2023-06-17T10:01:26.223Z,8228.00
2023-06-17T10:02:26.203Z,8280.00
2023-06-17T10:03:26.420Z,8928.00
2023-06-17T10:04:26.196Z,10008.00
2023-06-17T10:05:26.184Z,13248.00
2023-06-17T10:06:26.165Z,15200.00
2023-06-17T10:07:26.152Z,13788.00
2023-06-17T10:08:26.169Z,11352.00
2023-06-17T10:09:26.144Z,11432.00
2023-06-17T10:10:26.125Z,11552.00
2023-06-17T10:11:26.131Z,12260.00
2023-06-17T10:12:26.090Z,13544.00
2023-06-17T10:13:26.109Z,15248.00
2023-06-17T10:14:26.132Z,15936.00
2023-06-17T10:15:26.092Z,16448.00
2023-06-17T10:16:26.072Z,17888.00
2023-06-17T10:17:26.073Z,16672.00
2023-06-17T10:18:26.044Z,16896.00
2023-06-17T10:19:26.045Z,16544.00
2023-06-17T10:20:26.215Z,14716.00
2023-06-17T10:21:26.069Z,13512.00
2023-06-17T10:22:26.009Z,12928.00
2023-06-17T10:23:26.002Z,13912.00
2023-06-17T10:24:26.086Z,17376.00
2023-06-17T10:25:25.962Z,20512.00
2023-06-17T10:26:25.952Z,24320.00
2023-06-17T10:27:25.962Z,55136.00
2023-06-17T10:28:25.988Z,28800.00
2023-06-17T10:29:25.947Z,31776.00
2023-06-17T10:30:25.942Z,32352.00
2023-06-17T10:31:27.593Z,30688.00
2023-06-17T10:32:26.044Z,27456.00
2023-06-17T10:33:25.875Z,27072.00
2023-06-17T10:34:25.946Z,28544.00
2023-06-17T10:35:25.856Z,33056.00
2023-06-17T10:36:25.891Z,47520.00
2023-06-17T10:37:25.829Z,46720.00
2023-06-17T10:38:25.804Z,78720.00
2023-06-17T10:39:25.844Z,76256.00
2023-06-17T10:40:26.175Z,59264.00
2023-06-17T10:41:25.798Z,66976.00
2023-06-17T10:42:25.793Z,97696.00
2023-06-17T10:43:25.778Z,40384.00
2023-06-17T10:44:25.765Z,30144.00
2023-06-17T10:45:25.739Z,31680.00
2023-06-17T10:46:25.833Z,19968.00
2023-06-17T10:47:25.770Z,16736.00
2023-06-17T10:48:25.771Z,16480.00
2023-06-17T10:49:25.700Z,15680.00
2023-06-17T10:50:25.692Z,21024.00
2023-06-17T10:51:36.350Z,17312.00
2023-06-17T10:52:26.668Z,17024.00
2023-06-17T10:53:25.661Z,16832.00
2023-06-17T10:54:25.696Z,16416.00
2023-06-17T10:55:25.659Z,16064.00
2023-06-17T10:56:25.612Z,16448.00
2023-06-17T10:57:25.615Z,17184.00
2023-06-17T10:58:25.653Z,17248.00
2023-06-17T10:59:25.585Z,17024.00
2023-06-17T11:00:25.573Z,17760.00
2023-06-17T11:01:25.596Z,16800.00
2023-06-17T11:02:25.609Z,12372.00
2023-06-17T11:03:25.643Z,10456.00
2023-06-17T11:04:25.594Z,9752.00
2023-06-17T11:05:25.524Z,10180.00
2023-06-17T11:06:25.534Z,11864.00
2023-06-17T11:07:25.519Z,13992.00
2023-06-17T11:08:25.494Z,22592.00
2023-06-17T11:09:25.477Z,29120.00
2023-06-17T11:10:25.674Z,94304.00
2023-06-17T11:11:25.470Z,22880.00
2023-06-17T11:12:25.457Z,17664.00
2023-06-17T11:13:25.486Z,15652.00
2023-06-17T11:14:25.429Z,17824.00
2023-06-17T11:15:25.423Z,14776.00
2023-06-17T11:16:25.437Z,12624.00
2023-06-17T11:17:25.472Z,11804.00
2023-06-17T11:18:25.411Z,11208.00
2023-06-17T11:19:25.389Z,11004.00
2023-06-17T11:20:25.376Z,10744.00
2023-06-17T11:21:25.336Z,11460.00
2023-06-17T11:22:25.342Z,13056.00
2023-06-17T11:23:25.365Z,33952.00
2023-06-17T11:24:25.363Z,17236.00
2023-06-17T11:25:39.783Z,68960.00
2023-06-17T11:26:26.305Z,69376.00
2023-06-17T11:27:25.268Z,97472.00
2023-06-17T11:28:25.283Z,69984.00
2023-06-17T11:29:25.292Z,28384.00
2023-06-17T11:30:25.258Z,20608.00
2023-06-17T11:31:25.332Z,21120.00
2023-06-17T11:32:25.252Z,31680.00
2023-06-17T11:33:25.206Z,34464.00
2023-06-17T11:34:25.224Z,95712.00
2023-06-17T11:35:25.198Z,98080.00
2023-06-17T11:36:25.222Z,98144.00
2023-06-17T11:37:25.192Z,95648.00
2023-06-17T11:38:25.197Z,94688.00
2023-06-17T11:39:25.196Z,94304.00
2023-06-17T11:40:25.135Z,84896.00
2023-06-17T11:41:25.131Z,46912.00
2023-06-17T11:42:25.150Z,39936.00
2023-06-17T11:43:25.136Z,19328.00
2023-06-17T11:44:25.092Z,18816.00
2023-06-17T11:45:25.132Z,44000.00
2023-06-17T11:46:25.115Z,35200.00
2023-06-17T11:47:25.072Z,49600.00
2023-06-17T11:48:25.082Z,38048.00
2023-06-17T11:49:25.093Z,92416.00
2023-06-17T11:50:25.041Z,59168.00
2023-06-17T11:51:25.047Z,25568.00
2023-06-17T11:52:25.059Z,22944.00
2023-06-17T11:53:25.005Z,19616.00
2023-06-17T11:54:25.038Z,18432.00
2023-06-17T11:55:24.993Z,18560.00
2023-06-17T11:56:24.972Z,20448.00
2023-06-17T11:57:24.980Z,19488.00
2023-06-17T11:58:24.943Z,19136.00
2023-06-17T11:59:24.977Z,17888.00
2023-06-17T12:00:24.948Z,16372.00
2023-06-17T12:01:24.912Z,14980.00
2023-06-17T12:02:25.010Z,13160.00
2023-06-17T12:03:24.913Z,12236.00
2023-06-17T12:04:24.942Z,11868.00
2023-06-17T12:05:24.905Z,11604.00
2023-06-17T12:06:24.898Z,11140.00
2023-06-17T12:07:24.856Z,10832.00
2023-06-17T12:08:24.848Z,10700.00
2023-06-17T12:09:24.884Z,10884.00
2023-06-17T12:10:24.968Z,11476.00
2023-06-17T12:11:24.829Z,11668.00